Time;durP1;ratioP1;P1;durP2;ratioP2;P2;SDS_P1;SDS_P2;PMS_P1;PMS_P2;Temp;Humidity;BMP_temperature;BMP_pressure;BME280_temperature;BME280_humidity;BME280_pressure;Samples;Min_cycle;Max_cycle;Signal;HPM_P1;HPM_P2
2023/01/05 00:01:46;;;;;;;0.17;0.17;;;;;;;8.44;100.00;96583.72;4955397;28;20043;-77
2023/01/05 00:04:32;;;;;;;0.15;0.15;;;;;;;8.38;100.00;96580.09;4961576;28;20061;-75
2023/01/05 00:07:18;;;;;;;0.17;0.17;;;;;;;8.40;100.00;96563.88;4965660;28;20038;-77
2023/01/05 00:22:29;;;;;;;0.20;0.20;;;;;;;8.37;100.00;96560.63;4970246;28;20541;-76
2023/01/05 00:22:31;;;;;;;0.10;0.10;;;;;;;8.10;100.00;96565.56;4967332;28;20054;-77
2023/01/05 00:25:22;;;;;;;0.10;0.10;;;;;;;7.81;100.00;96561.94;4966273;28;20046;-77
2023/01/05 00:28:08;;;;;;;;;;;;;;;7.77;100.00;96594.56;4966020;28;20100;-76
2023/01/05 00:30:54;;;;;;;0.20;0.20;;;;;;;7.68;100.00;96574.63;4964739;28;20413;-76
2023/01/05 00:33:40;;;;;;;0.15;0.15;;;;;;;7.58;100.00;96590.34;4964262;28;20046;-77
2023/01/05 00:36:26;;;;;;;0.10;0.10;;;;;;;7.57;100.00;96586.88;4964466;28;20120;-77
2023/01/05 00:39:12;;;;;;;0.20;0.17;;;;;;;7.68;100.00;96591.41;4963843;28;20046;-77
2023/01/05 00:41:58;;;;;;;0.10;0.10;;;;;;;7.71;100.00;96579.50;4981288;28;20046;-75
2023/01/05 00:44:44;;;;;;;0.10;0.10;;;;;;;7.64;100.00;96582.25;4962185;28;20050;-77
2023/01/05 00:47:30;;;;;;;0.20;0.20;;;;;;;7.53;100.00;96594.47;4980180;28;20051;-77
2023/01/05 00:50:17;;;;;;;0.20;0.20;;;;;;;7.64;100.00;96576.94;4967256;28;20379;-77
2023/01/05 00:53:03;;;;;;;0.15;0.15;;;;;;;7.56;100.00;96585.25;4965710;28;20039;-76
2023/01/05 00:55:56;;;;;;;0.20;0.20;;;;;;;7.57;100.00;96580.72;4964282;28;20042;-77
2023/01/05 00:58:42;;;;;;;0.10;0.10;;;;;;;7.64;100.00;96597.44;4961875;28;20550;-77
2023/01/05 01:01:28;;;;;;;0.10;0.10;;;;;;;7.69;100.00;96594.88;4956327;28;20361;-77
2023/01/05 01:04:18;;;;;;;0.20;0.20;;;;;;;7.70;100.00;96583.19;4943829;28;20059;-77
2023/01/05 01:07:04;;;;;;;0.20;0.20;;;;;;;7.67;100.00;96599.63;4946943;28;20062;-77
2023/01/05 01:09:50;;;;;;;0.10;0.10;;;;;;;7.59;100.00;96573.31;4945206;28;20394;-75
2023/01/05 01:12:36;;;;;;;0.20;0.20;;;;;;;7.58;100.00;96572.50;4947767;28;20039;-77
2023/01/05 01:15:22;;;;;;;0.10;0.10;;;;;;;7.57;100.00;96583.41;4947683;28;20510;-76
2023/01/05 01:18:08;;;;;;;0.13;0.13;;;;;;;7.60;100.00;96580.28;4945349;28;20233;-77
2023/01/05 01:20:55;;;;;;;0.20;0.20;;;;;;;7.63;100.00;96601.13;4946187;28;20066;-76
2023/01/05 01:23:42;;;;;;;0.10;0.10;;;;;;;7.59;100.00;96597.28;4943678;28;20734;-76
2023/01/05 01:26:27;;;;;;;0.10;0.10;;;;;;;7.65;100.00;96597.19;4947326;28;20420;-74
2023/01/05 01:29:16;;;;;;;0.20;0.20;;;;;;;7.67;100.00;96596.97;4944640;28;20165;-75
2023/01/05 01:32:02;;;;;;;0.15;0.15;;;;;;;7.64;100.00;96603.56;4931314;28;20172;-76
2023/01/05 01:34:48;;;;;;;0.20;0.20;;;;;;;7.68;100.00;96595.94;4944920;28;20157;-77
2023/01/05 01:37:34;;;;;;;0.15;0.15;;;;;;;7.66;100.00;96590.03;4959601;28;20046;-74
2023/01/05 01:40:22;;;;;;;0.10;0.10;;;;;;;7.70;100.00;96605.31;4943994;28;20129;-76
2023/01/05 01:43:20;;;;;;;0.10;0.10;;;;;;;7.78;100.00;96597.03;4944587;28;20132;-75
2023/01/05 01:46:06;;;;;;;0.10;0.10;;;;;;;7.72;100.00;96578.47;4944667;28;20561;-76
2023/01/05 01:48:58;;;;;;;0.20;0.20;;;;;;;7.79;100.00;96589.84;4939767;28;20641;-76
2023/01/05 01:51:47;;;;;;;0.10;0.10;;;;;;;7.80;100.00;96602.94;4945710;28;20229;-77
2023/01/05 01:54:34;;;;;;;0.10;0.10;;;;;;;7.77;100.00;96594.56;4957433;28;20077;-74
2023/01/05 01:57:21;;;;;;;0.20;0.20;;;;;;;7.78;100.00;96602.34;4957428;28;20050;-76
2023/01/05 02:00:09;;;;;;;0.17;0.17;;;;;;;7.78;100.00;96591.69;4945313;28;20424;-76
2023/01/05 02:03:04;;;;;;;0.20;0.20;;;;;;;7.75;100.00;96593.97;4943745;28;20050;-76
2023/01/05 02:05:50;;;;;;;0.10;0.10;;;;;;;7.80;100.00;96592.28;4943637;28;20043;-76
2023/01/05 02:08:36;;;;;;;0.10;0.10;;;;;;;7.81;100.00;96588.56;4941840;28;20054;-74
2023/01/05 02:11:36;;;;;;;0.10;0.10;;;;;;;7.82;100.00;96600.03;4945521;28;20046;-76
2023/01/05 02:15:15;;;;;;;0.20;0.20;;;;;;;7.84;100.00;96587.28;4943937;28;20404;-77
2023/01/05 02:18:31;;;;;;;0.20;0.20;;;;;;;7.80;100.00;96578.94;4919514;28;20535;-75
2023/01/05 02:21:24;;;;;;;0.20;0.20;;;;;;;7.76;100.00;96566.31;4954354;28;20054;-76
2023/01/05 02:24:16;;;;;;;0.10;0.10;;;;;;;7.76;100.00;96577.78;4944530;28;20043;-77
2023/01/05 02:27:13;;;;;;;0.10;0.10;;;;;;;7.78;100.00;96590.84;4957434;28;20463;-75
2023/01/05 02:30:29;;;;;;;0.10;0.10;;;;;;;7.78;100.00;96588.19;4941442;28;20054;-76
2023/01/05 02:33:39;;;;;;;0.13;0.13;;;;;;;7.82;100.00;96578.72;4964026;28;20499;-76
2023/01/05 02:36:46;;;;;;;0.17;0.17;;;;;;;7.78;100.00;96577.53;4961011;28;20420;-76
2023/01/05 02:39:55;;;;;;;0.10;0.10;;;;;;;7.77;100.00;96581.25;4960729;28;20046;-77
2023/01/05 02:42:44;;;;;;;0.17;0.17;;;;;;;7.78;100.00;96577.53;4962672;28;20108;-76
2023/01/05 02:45:32;;;;;;;0.10;0.10;;;;;;;7.73;100.00;96582.75;4973957;28;20145;-76
2023/01/05 02:48:19;;;;;;;0.13;0.13;;;;;;;7.69;100.00;96579.72;4963081;28;20447;-75
2023/01/05 02:51:11;;;;;;;0.15;0.15;;;;;;;7.66;100.00;96582.84;4960598;28;20038;-76
2023/01/05 02:54:05;;;;;;;0.10;0.10;;;;;;;7.72;100.00;96575.81;4962297;28;20042;-75
2023/01/05 02:57:11;;;;;;;0.10;0.10;;;;;;;7.69;100.00;96585.03;4963947;28;20050;-75
2023/01/05 02:59:57;;;;;;;0.17;0.17;;;;;;;7.68;100.00;96578.09;4962172;28;20635;-74
2023/01/05 03:02:48;;;;;;;0.17;0.17;;;;;;;7.69;100.00;96590.38;4962417;28;20073;-76
2023/01/05 03:05:42;;;;;;;0.20;0.20;;;;;;;7.66;100.00;96582.03;4974606;28;20074;-76
2023/01/05 03:08:32;;;;;;;0.10;0.10;;;;;;;7.66;100.00;96590.03;4964149;28;20545;-75
2023/01/05 03:14:34;;;;;;;0.20;0.20;;;;;;;7.70;100.00;96591.19;4962429;28;20089;-77
2023/01/05 03:17:28;;;;;;;0.20;0.20;;;;;;;7.67;100.00;96581.81;4961813;28;20121;-76
2023/01/05 03:20:17;;;;;;;0.10;0.10;;;;;;;7.66;100.00;96582.84;4960900;28;20100;-76
2023/01/05 03:35:32;;;;;;;0.15;0.15;;;;;;;7.64;100.00;96602.75;4949012;28;20054;-76
2023/01/05 03:38:27;;;;;;;0.10;0.10;;;;;;;7.59;100.00;96589.31;4944619;28;20061;-76
2023/01/05 03:41:15;;;;;;;0.17;0.17;;;;;;;7.59;100.00;96597.28;4941937;28;20486;-75
2023/01/05 03:44:01;;;;;;;0.20;0.20;;;;;;;7.54;100.00;96593.44;4945718;28;20394;-76
2023/01/05 03:46:51;;;;;;;0.17;0.17;;;;;;;7.50;100.00;96615.44;4961588;28;20375;-75
2023/01/05 03:49:37;;;;;;;0.20;0.20;;;;;;;7.51;100.00;96598.41;4957869;28;20377;-74
2023/01/05 03:52:23;;;;;;;0.10;0.10;;;;;;;7.48;100.00;96609.53;4944985;28;20043;-76
2023/01/05 03:55:13;;;;;;;0.10;0.10;;;;;;;7.43;100.00;96604.06;4946005;28;20658;-75
2023/01/05 03:58:00;;;;;;;0.20;0.20;;;;;;;7.34;100.00;96603.56;4957958;28;20445;-74
2023/01/05 04:00:47;;;;;;;0.20;0.20;;;;;;;7.29;100.00;96616.72;4956967;28;20043;-76
2023/01/05 04:03:35;;;;;;;0.10;0.10;;;;;;;7.25;100.00;96627.00;4945087;28;20039;-75
2023/01/05 04:06:25;;;;;;;0.20;0.20;;;;;;;7.20;100.00;96616.22;4956924;28;20038;-76
2023/01/05 04:09:11;;;;;;;0.10;0.10;;;;;;;7.12;100.00;96611.19;4945465;28;20781;-73
2023/01/05 04:12:00;;;;;;;0.10;0.10;;;;;;;7.13;100.00;96607.50;4945488;28;20046;-74
2023/01/05 04:14:50;;;;;;;0.20;0.20;;;;;;;7.14;100.00;96605.63;4956635;28;20189;-75
2023/01/05 04:17:36;;;;;;;0.10;0.10;;;;;;;7.13;100.00;96588.03;4946080;28;20431;-74
2023/01/05 04:20:22;;;;;;;0.17;0.17;;;;;;;7.15;100.00;96594.75;4938939;28;20054;-76
2023/01/05 04:23:09;;;;;;;0.10;0.10;;;;;;;7.19;100.00;96611.94;4941671;28;21461;-74
2023/01/05 04:25:55;;;;;;;0.15;0.15;;;;;;;7.25;100.00;96618.22;4957345;28;20035;-73
2023/01/05 04:28:42;;;;;;;0.20;0.20;;;;;;;7.26;100.00;96607.34;4945377;28;20039;-75
2023/01/05 04:31:30;;;;;;;0.20;0.20;;;;;;;7.24;100.00;96612.06;4944108;28;20058;-74
2023/01/05 04:34:16;;;;;;;0.20;0.20;;;;;;;7.22;100.00;96611.47;4947148;28;20064;-75
2023/01/05 04:37:03;;;;;;;0.20;0.20;;;;;;;7.21;100.00;96622.34;4943255;28;20337;-74
2023/01/05 04:39:50;;;;;;;0.10;0.10;;;;;;;7.21;100.00;96627.66;4944697;28;20377;-75
2023/01/05 04:42:36;;;;;;;0.10;0.10;;;;;;;7.18;100.00;96636.91;4945861;28;20448;-75
2023/01/05 04:45:23;;;;;;;0.20;0.20;;;;;;;7.24;100.00;96620.06;4944392;28;20049;-76
2023/01/05 04:48:10;;;;;;;0.20;0.20;;;;;;;7.24;100.00;96621.91;4943214;28;20097;-76
2023/01/05 04:50:58;;;;;;;0.10;0.10;;;;;;;7.30;100.00;96617.53;4930426;28;20132;-76
2023/01/05 04:53:53;;;;;;;0.20;0.20;;;;;;;7.28;100.00;96616.94;4957089;28;20050;-76
2023/01/05 04:56:42;;;;;;;0.10;0.10;;;;;;;7.30;100.00;96610.34;4959439;28;20053;-76
2023/01/05 04:59:28;;;;;;;0.10;0.10;;;;;;;7.28;100.00;96615.09;4943959;28;20051;-75
2023/01/05 05:02:21;;;;;;;0.15;0.15;;;;;;;7.28;100.00;96633.72;4943215;28;20263;-76
2023/01/05 05:05:09;;;;;;;0.13;0.13;;;;;;;7.23;100.00;96605.09;4931060;28;20062;-76
2023/01/05 05:07:56;;;;;;;0.20;0.20;;;;;;;7.27;100.00;96621.47;4944606;28;20162;-76
2023/01/05 05:10:45;;;;;;;0.20;0.20;;;;;;;7.26;100.00;96617.97;4946875;28;20077;-76
2023/01/05 05:13:32;;;;;;;0.20;0.20;;;;;;;7.28;100.00;96607.09;4946400;28;20049;-75
2023/01/05 05:16:19;;;;;;;0.10;0.10;;;;;;;7.22;100.00;96624.78;4958445;28;20503;-75
2023/01/05 05:19:08;;;;;;;0.10;0.10;;;;;;;7.14;100.00;96627.75;4944920;28;20105;-76
2023/01/05 05:21:55;;;;;;;0.10;0.10;;;;;;;7.09;100.00;96643.56;4957030;28;20047;-75
2023/01/05 05:24:43;;;;;;;0.10;0.10;;;;;;;7.09;100.00;96634.78;4946420;28;20046;-76
2023/01/05 05:27:29;;;;;;;0.10;0.10;;;;;;;7.09;100.00;96640.91;4945138;28;20283;-76
2023/01/05 05:30:15;;;;;;;0.20;0.20;;;;;;;7.09;100.00;96632.13;4945892;28;20495;-75
2023/01/05 05:33:01;;;;;;;0.10;0.10;;;;;;;7.07;100.00;96623.53;4946635;28;20164;-75
2023/01/05 05:35:47;;;;;;;0.10;0.10;;;;;;;7.09;100.00;96640.91;4947174;28;20117;-75
2023/01/05 05:38:33;;;;;;;0.10;0.10;;;;;;;7.14;100.00;96648.22;4947301;28;20518;-76
2023/01/05 05:41:19;;;;;;;0.20;0.20;;;;;;;7.10;100.00;96647.06;4946911;28;20457;-76
2023/01/05 05:44:05;;;;;;;0.10;0.10;;;;;;;7.12;100.00;96647.63;4945186;28;20578;-75
2023/01/05 05:46:51;;;;;;;0.20;0.20;;;;;;;7.14;100.00;96656.19;4946390;28;20053;-75
2023/01/05 05:49:37;;;;;;;0.20;0.20;;;;;;;7.19;100.00;96638.53;4945152;28;20695;-76
2023/01/05 05:52:23;;;;;;;0.10;0.10;;;;;;;7.19;100.00;96649.19;4944495;28;20048;-76
2023/01/05 05:55:09;;;;;;;0.10;0.10;;;;;;;7.19;100.00;96643.06;4944373;28;20478;-76
2023/01/05 05:57:55;;;;;;;0.20;0.20;;;;;;;7.20;100.00;96652.66;4944053;28;20375;-75
2023/01/05 06:00:41;;;;;;;0.10;0.10;;;;;;;7.22;100.00;96650.56;4944666;28;20038;-76
2023/01/05 06:03:26;;;;;;;0.20;0.20;;;;;;;7.25;100.00;96663.47;4945591;28;20129;-76
2023/01/05 06:06:12;;;;;;;0.20;0.20;;;;;;;7.25;100.00;96656.28;4941591;28;20039;-76
2023/01/05 06:08:58;;;;;;;0.20;0.20;;;;;;;7.26;100.00;96668.56;4943686;28;20093;-75
2023/01/05 06:11:44;;;;;;;0.20;0.20;;;;;;;7.30;100.00;96676.91;4945637;28;20927;-75
2023/01/05 06:14:29;;;;;;;0.10;0.10;;;;;;;7.28;100.00;96675.50;4944161;28;20043;-77
2023/01/05 06:17:15;;;;;;;0.10;0.10;;;;;;;7.32;100.00;96682.03;4945647;28;20139;-77
2023/01/05 06:20:01;;;;;;;0.20;0.20;;;;;;;7.33;100.00;96671.16;4943501;28;20487;-76
2023/01/05 06:22:47;;;;;;;0.13;0.13;;;;;;;7.30;100.00;96682.22;4944106;28;20452;-76
2023/01/05 06:25:33;;;;;;;0.17;0.17;;;;;;;7.28;100.00;96686.97;4945103;28;20447;-75
2023/01/05 06:28:19;;;;;;;0.10;0.10;;;;;;;7.26;100.00;96678.41;4942932;28;20054;-76
2023/01/05 06:31:07;;;;;;;0.20;0.20;;;;;;;7.25;100.00;96684.75;4951559;28;20074;-76
2023/01/05 06:33:53;;;;;;;0.10;0.10;;;;;;;7.25;100.00;96698.88;4975713;28;20050;-74
2023/01/05 06:36:38;;;;;;;0.15;0.15;;;;;;;7.22;100.00;96695.81;4951534;28;20366;-74
2023/01/05 06:39:24;;;;;;;0.10;0.10;;;;;;;7.15;100.00;96706.53;4963307;28;20034;-76
2023/01/05 06:42:10;;;;;;;0.20;0.20;;;;;;;7.12;100.00;96684.88;4963373;28;20385;-76
2023/01/05 06:44:56;;;;;;;0.10;0.10;;;;;;;7.14;100.00;96699.59;4965306;28;20489;-75
2023/01/05 06:47:43;;;;;;;0.25;0.25;;;;;;;7.10;100.00;96693.09;4967545;28;20050;-75
2023/01/05 06:50:30;;;;;;;0.10;0.10;;;;;;;7.06;100.00;96704.38;4964712;28;20050;-74
2023/01/05 06:53:16;;;;;;;0.20;0.20;;;;;;;7.05;100.00;96718.72;4977873;28;20550;-74
2023/01/05 06:56:02;;;;;;;0.10;0.10;;;;;;;7.05;100.00;96716.06;4965134;28;20042;-75
2023/01/05 06:58:48;;;;;;;0.10;0.10;;;;;;;7.07;100.00;96717.47;4965195;28;20427;-75
2023/01/05 07:01:34;;;;;;;0.10;0.10;;;;;;;7.14;100.00;96712.91;4955263;28;20053;-75
2023/01/05 07:04:20;;;;;;;0.20;0.20;;;;;;;7.08;100.00;96716.47;4945785;28;20447;-76
2023/01/05 07:07:10;;;;;;;0.10;0.10;;;;;;;7.14;100.00;96728.06;4946546;28;20038;-76
2023/01/05 07:09:56;;;;;;;0.10;0.10;;;;;;;7.10;100.00;96718.91;4956796;28;20039;-75
2023/01/05 07:12:42;;;;;;;0.10;0.10;;;;;;;7.12;100.00;96722.16;4946997;28;20034;-74
2023/01/05 07:15:27;;;;;;;0.17;0.17;;;;;;;7.14;100.00;96728.06;4945897;28;20145;-76
2023/01/05 07:18:13;;;;;;;0.10;0.10;;;;;;;7.15;100.00;96727.00;4944527;28;20287;-74
2023/01/05 07:20:59;;;;;;;0.10;0.10;;;;;;;7.13;100.00;96731.75;4941979;28;20337;-75
2023/01/05 07:23:45;;;;;;;0.10;0.10;;;;;;;7.24;100.00;96741.69;4959271;28;20102;-76
2023/01/05 07:26:31;;;;;;;0.20;0.20;;;;;;;7.22;100.00;96739.22;4948770;28;20055;-75
2023/01/05 07:29:17;;;;;;;0.10;0.10;;;;;;;7.25;100.00;96744.13;4947466;28;20523;-75
2023/01/05 07:32:03;;;;;;;0.10;0.10;;;;;;;7.26;100.00;96752.94;4962577;28;20043;-74
2023/01/05 07:34:50;;;;;;;0.10;0.10;;;;;;;7.30;100.00;96755.94;4965942;28;20180;-76
2023/01/05 07:37:35;;;;;;;0.20;0.20;;;;;;;7.25;100.00;96753.97;4964976;28;20049;-75
2023/01/05 07:40:21;;;;;;;0.10;0.10;;;;;;;7.27;100.00;96765.19;4966853;28;20050;-75
2023/01/05 07:43:07;;;;;;;0.20;0.20;;;;;;;7.25;100.00;96753.97;4966152;28;20042;-76
2023/01/05 07:46:00;;;;;;;0.15;0.15;;;;;;;7.26;100.00;96776.88;4966576;28;20148;-74
2023/01/05 07:48:46;;;;;;;0.10;0.10;;;;;;;7.30;100.00;96774.59;4965057;28;20046;-75
2023/01/05 07:51:32;;;;;;;0.15;0.15;;;;;;;7.30;100.00;96780.72;4966930;28;20467;-76
2023/01/05 07:54:18;;;;;;;0.10;0.10;;;;;;;7.30;100.00;96791.38;4964589;28;20765;-75
2023/01/05 07:57:03;;;;;;;0.13;0.13;;;;;;;7.25;100.00;96783.25;4967019;28;20324;-75
2023/01/05 07:59:49;;;;;;;0.10;0.10;;;;;;;7.24;100.00;96784.28;4963771;28;20561;-76
2023/01/05 08:02:35;;;;;;;0.20;0.20;;;;;;;7.29;100.00;96802.25;4964601;28;20042;-76
2023/01/05 08:05:21;;;;;;;0.20;0.20;;;;;;;7.21;100.00;96795.34;4965795;28;20388;-75
2023/01/05 08:08:07;;;;;;;0.17;0.17;;;;;;;7.26;100.00;96809.63;4975855;28;20053;-75
2023/01/05 08:10:53;;;;;;;0.10;0.10;;;;;;;7.30;100.00;96807.34;4964973;28;20495;-76
2023/01/05 08:16:43;;;;;;;0.10;0.10;;;;;;;7.32;100.00;96807.13;4966870;28;20287;-77
2023/01/05 08:19:29;;;;;;;0.10;0.10;;;;;;;7.38;100.00;96809.72;4965992;28;20132;-76
2023/01/05 08:22:15;;;;;;;0.10;0.10;;;;;;;7.37;100.00;96812.59;4963637;28;20464;-76
2023/01/05 08:25:01;;;;;;;0.20;0.20;;;;;;;7.44;100.00;96816.03;4964873;28;20148;-76
2023/01/05 08:27:47;;;;;;;0.10;0.10;;;;;;;7.47;100.00;96816.41;4967489;28;20052;-77
2023/01/05 08:30:33;;;;;;;0.20;0.20;;;;;;;7.48;100.00;96842.00;4965814;28;20057;-76
2023/01/05 08:33:18;;;;;;;0.20;0.20;;;;;;;7.52;100.00;96821.06;4949122;28;20047;-76
2023/01/05 08:36:10;;;;;;;0.10;0.10;;;;;;;7.48;100.00;96823.38;4949003;28;20407;-76
2023/01/05 08:38:56;;;;;;;0.10;0.10;;;;;;;7.48;100.00;96831.34;4949145;28;20054;-75
2023/01/05 08:41:42;;;;;;;0.20;0.20;;;;;;;7.54;100.00;96816.31;4950512;28;20544;-76
2023/01/05 08:44:28;;;;;;;0.20;0.20;;;;;;;7.57;100.00;96841.72;4948629;28;20574;-75
2023/01/05 08:47:14;;;;;;;0.20;0.20;;;;;;;7.59;100.00;96831.66;4949725;28;20390;-75
2023/01/05 08:50:00;;;;;;;0.20;0.20;;;;;;;7.57;100.00;96839.06;4948493;28;20459;-76
2023/01/05 08:52:45;;;;;;;0.20;0.20;;;;;;;7.58;100.00;96854.00;4949575;28;20042;-77
2023/01/05 08:55:31;;;;;;;0.20;0.20;;;;;;;7.60;100.00;96841.25;4947466;28;20177;-75
2023/01/05 08:58:17;;;;;;;0.20;0.20;;;;;;;7.65;100.00;96841.44;4947204;28;20122;-76
2023/01/05 09:01:11;;;;;;;0.20;0.20;;;;;;;7.67;100.00;96845.50;4965722;28;20383;-75
2023/01/05 09:03:59;;;;;;;0.20;0.20;;;;;;;7.63;100.00;96859.50;4978173;28;20058;-75
2023/01/05 09:06:46;;;;;;;0.13;0.13;;;;;;;7.59;100.00;96856.44;4967747;28;20116;-75
2023/01/05 09:09:32;;;;;;;0.20;0.20;;;;;;;7.66;100.00;96867.84;4936142;28;20372;-74
2023/01/05 09:12:17;;;;;;;0.10;0.10;;;;;;;7.57;100.00;96858.50;4966689;28;20680;-76
2023/01/05 09:15:04;;;;;;;0.10;0.10;;;;;;;7.69;100.00;96870.06;4965547;28;20042;-74
2023/01/05 09:17:50;;;;;;;0.15;0.15;;;;;;;7.72;100.00;96858.16;4979535;28;20046;-76
2023/01/05 09:20:36;;;;;;;0.20;0.20;;;;;;;7.69;100.00;96875.38;4957313;28;20038;-77
2023/01/05 09:23:22;;;;;;;0.20;0.20;;;;;;;7.74;100.00;96853.41;4967303;28;21732;-75
2023/01/05 09:26:10;;;;;;;0.20;0.20;;;;;;;7.74;100.00;96869.41;4967005;28;20400;-76
2023/01/05 09:28:56;;;;;;;0.15;0.15;;;;;;;7.93;100.00;96863.03;4967640;28;20046;-77
2023/01/05 09:31:43;;;;;;;0.15;0.15;;;;;;;8.13;100.00;96870.84;4952204;28;20034;-76
2023/01/05 09:34:29;;;;;;;0.20;0.20;;;;;;;8.01;100.00;96861.94;4948411;28;20070;-76
2023/01/05 09:37:15;;;;;;;0.20;0.20;;;;;;;7.93;100.00;96865.72;4947374;28;20050;-76
2023/01/05 09:40:00;;;;;;;0.17;0.17;;;;;;;7.97;100.00;96877.56;4946015;28;20070;-77
2023/01/05 09:42:47;;;;;;;0.20;0.20;;;;;;;7.88;100.00;96857.59;4947995;28;20035;-77
2023/01/05 09:45:36;;;;;;;0.20;0.20;;;;;;;8.23;100.00;96888.97;4946460;28;20410;-76
2023/01/05 09:48:23;;;;;;;0.20;0.20;;;;;;;8.20;100.00;96892.09;4945567;28;20837;-76
2023/01/05 09:51:11;;;;;;;0.20;0.20;;;;;;;8.14;100.00;96885.78;4945783;28;20047;-76
2023/01/05 09:53:59;;;;;;;0.25;0.20;;;;;;;8.25;100.00;96884.22;4945245;28;20086;-77
2023/01/05 09:56:47;;;;;;;0.20;0.20;;;;;;;8.23;100.00;96896.97;4948576;28;20183;-76
2023/01/05 09:59:39;;;;;;;0.10;0.10;;;;;;;8.16;100.00;96898.88;4943942;28;20042;-76
2023/01/05 10:02:47;;;;;;;0.20;0.20;;;;;;;8.15;100.00;96907.91;4944780;28;20397;-75
2023/01/05 10:05:41;;;;;;;0.10;0.10;;;;;;;8.13;100.00;96908.16;4948539;28;20061;-76
2023/01/05 10:08:39;;;;;;;0.10;0.10;;;;;;;8.20;100.00;96900.09;4945261;28;20384;-76
2023/01/05 10:15:10;;;;;;;0.20;0.20;;;;;;;8.03;100.00;96908.66;4963183;28;20053;-76
2023/01/05 10:17:58;;;;;;;0.20;0.20;;;;;;;7.92;100.00;96905.91;4965288;28;20042;-76
2023/01/05 10:20:56;;;;;;;0.10;0.10;;;;;;;7.85;100.00;96900.63;4966404;28;20346;-77
2023/01/05 10:24:07;;;;;;;0.10;0.10;;;;;;;7.88;100.00;96902.88;4965263;28;20045;-75
2023/01/05 10:27:19;;;;;;;0.20;0.20;;;;;;;8.02;100.00;96920.38;4968101;28;20042;-76
2023/01/05 10:30:25;;;;;;;0.10;0.10;;;;;;;8.00;100.00;96909.09;4960037;28;20592;-76
2023/01/05 10:33:24;;;;;;;0.20;0.20;;;;;;;8.14;100.00;96901.78;4962980;28;20596;-77
2023/01/05 10:36:26;;;;;;;0.10;0.10;;;;;;;8.07;100.00;96917.03;4963509;28;20338;-76
2023/01/05 10:39:27;;;;;;;0.10;0.10;;;;;;;7.97;100.00;96919.41;4959417;28;20073;-76
2023/01/05 10:42:39;;;;;;;0.20;0.20;;;;;;;7.93;100.00;96900.34;4963364;28;20165;-76
2023/01/05 10:45:28;;;;;;;0.10;0.10;;;;;;;7.98;100.00;96923.69;4974783;28;20252;-75
2023/01/05 10:48:18;;;;;;;0.10;0.10;;;;;;;7.93;100.00;96928.84;4964681;28;20046;-75
2023/01/05 10:51:06;;;;;;;0.20;0.20;;;;;;;7.79;100.00;96922.84;4962386;28;20557;-76
2023/01/05 10:53:53;;;;;;;0.20;0.20;;;;;;;7.71;100.00;96928.47;4965244;28;20049;-77
2023/01/05 10:56:39;;;;;;;0.20;0.20;;;;;;;7.68;100.00;96934.22;4977348;28;20043;-76
2023/01/05 10:59:24;;;;;;;0.20;0.20;;;;;;;7.59;100.00;96927.53;4963396;28;20466;-77
2023/01/05 11:02:12;;;;;;;0.20;0.20;;;;;;;7.68;100.00;96955.53;4962877;28;20039;-76
2023/01/05 11:05:06;;;;;;;0.20;0.20;;;;;;;8.06;100.00;96936.72;4965482;28;20061;-77
2023/01/05 11:07:55;;;;;;;0.20;0.20;;;;;;;8.32;100.00;96927.63;4966205;28;20039;-77
2023/01/05 11:10:49;;;;;;;0.10;0.10;;;;;;;8.23;100.00;96940.44;4938950;28;20888;-76
2023/01/05 11:13:40;;;;;;;0.20;0.20;;;;;;;8.16;100.00;96936.19;4963783;28;20109;-76
2023/01/05 11:16:31;;;;;;;0.20;0.20;;;;;;;8.27;100.00;96938.97;4963698;28;20717;-75
2023/01/05 11:19:21;;;;;;;0.20;0.20;;;;;;;8.16;100.00;96934.34;4964905;28;20046;-76
2023/01/05 11:22:32;;;;;;;0.20;0.20;;;;;;;8.23;100.00;96940.44;4955222;28;20046;-76
2023/01/05 11:25:32;;;;;;;0.20;0.20;;;;;;;8.16;100.00;96937.03;4965749;28;20506;-75
2023/01/05 11:28:18;;;;;;;0.20;0.20;;;;;;;8.10;100.00;96928.06;4965708;28;20199;-74
2023/01/05 11:31:07;;;;;;;0.20;0.20;;;;;;;8.17;100.00;96927.16;4964817;28;20056;-76
2023/01/05 11:33:57;;;;;;;0.20;0.20;;;;;;;8.34;100.00;96945.03;4274175;28;10000459;-75
2023/01/05 11:37:00;;;;;;;0.20;0.20;;;;;;;8.52;100.00;96951.44;4961873;28;20096;-76
2023/01/05 11:39:48;;;;;;;0.17;0.17;;;;;;;8.93;100.00;96945.38;4963640;28;20038;-76
2023/01/05 11:42:41;;;;;;;0.20;0.20;;;;;;;8.63;100.00;96956.00;4965476;28;20038;-76
2023/01/05 11:45:39;;;;;;;0.20;0.20;;;;;;;8.41;100.00;96944.19;4962016;28;20593;-78
2023/01/05 11:48:31;;;;;;;0.13;0.13;;;;;;;8.33;100.00;96937.28;4962794;28;20133;-76
2023/01/05 11:51:37;;;;;;;0.20;0.20;;;;;;;8.42;100.00;96954.63;4971173;28;20049;-77
2023/01/05 11:54:35;;;;;;;0.20;0.20;;;;;;;8.71;100.00;96944.22;4974997;28;20157;-76
2023/01/05 11:57:21;;;;;;;0.20;0.20;;;;;;;8.94;100.00;96957.66;4963499;28;20490;-77
2023/01/05 12:00:25;;;;;;;0.20;0.20;;;;;;;13.15;100.00;96941.84;4961884;28;20105;-78
2023/01/05 12:03:40;;;;;;;0.20;0.20;;;;;;;11.87;100.00;96942.03;4966790;28;20046;-77
2023/01/05 12:06:38;;;;;;;0.13;0.13;;;;;;;10.83;100.00;96942.34;4948009;28;21802;-77
2023/01/05 12:09:37;;;;;;;0.20;0.20;;;;;;;10.54;100.00;96938.00;4919366;28;20092;-77
2023/01/05 12:12:29;;;;;;;0.20;0.20;;;;;;;10.39;100.00;96959.09;4945945;28;20050;-78
2023/01/05 12:15:26;;;;;;;0.20;0.20;;;;;;;9.97;100.00;96949.31;4945575;28;20097;-78
2023/01/05 12:18:46;;;;;;;0.20;0.20;;;;;;;10.88;100.00;96937.06;4946944;28;20418;-78
2023/01/05 12:21:40;;;;;;;0.20;0.20;;;;;;;10.70;100.00;96937.25;4948276;28;20444;-76
2023/01/05 12:24:47;;;;;;;0.20;0.20;;;;;;;11.73;100.00;96946.88;4948549;28;20043;-77
2023/01/05 12:27:42;;;;;;;0.10;0.10;;;;;;;11.96;100.00;96950.47;4947526;28;20443;-78
2023/01/05 12:30:36;;;;;;;0.20;0.20;;;;;;;12.12;100.00;96943.47;4942767;28;20051;-78
2023/01/05 12:33:50;;;;;;;0.20;0.20;;;;;;;11.70;100.00;96950.06;4926522;29;20035;-78
2023/01/05 12:37:03;;;;;;;0.20;0.20;;;;;;;11.61;100.00;96964.13;4924932;28;20046;-76
2023/01/05 12:40:25;;;;;;;0.20;0.20;;;;;;;11.33;100.00;96955.03;4930364;29;20038;-78
2023/01/05 12:43:32;;;;;;;0.32;0.32;;;;;;;14.08;100.00;96961.22;4914645;29;20043;-77
2023/01/05 12:46:36;;;;;;;0.15;0.15;;;;;;;13.28;100.00;96960.25;4927374;29;20046;-77
2023/01/05 12:49:41;;;;;;;0.10;0.10;;;;;;;12.02;100.00;96954.06;4926810;29;20049;-77
2023/01/05 12:52:31;;;;;;;0.20;0.20;;;;;;;11.29;100.00;96961.97;4927198;29;20192;-77
2023/01/05 12:55:24;;;;;;;0.10;0.10;;;;;;;11.29;100.00;96966.50;4913735;29;20761;-78
2023/01/05 12:58:16;;;;;;;0.10;0.10;;;;;;;10.67;100.00;96969.06;4927230;29;20349;-77
2023/01/05 13:01:05;;;;;;;0.20;0.20;;;;;;;10.47;100.00;96966.75;4934596;28;20487;-77
2023/01/05 13:04:01;;;;;;;0.20;0.20;;;;;;;10.17;100.00;96967.66;4938418;28;20047;-78
2023/01/05 13:06:51;;;;;;;0.10;0.10;;;;;;;10.19;100.00;96984.28;4968009;28;20669;-78
2023/01/05 13:09:38;;;;;;;0.20;0.20;;;;;;;9.96;100.00;96979.78;4940128;28;20438;-77
2023/01/05 13:12:25;;;;;;;0.20;0.20;;;;;;;9.69;100.00;96978.56;4979478;28;20405;-77
2023/01/05 13:15:10;;;;;;;0.10;0.10;;;;;;;9.77;100.00;96984.38;4964711;28;20580;-77
2023/01/05 13:18:00;;;;;;;0.10;0.10;;;;;;;10.04;100.00;96975.94;4966707;28;20065;-78
2023/01/05 13:20:55;;;;;;;0.10;0.10;;;;;;;10.10;100.00;96972.31;4968190;28;20050;-78
2023/01/05 13:23:50;;;;;;;0.10;0.10;;;;;;;10.13;100.00;96973.72;4980958;28;20360;-76
2023/01/05 13:26:36;;;;;;;0.10;0.10;;;;;;;9.89;100.00;96983.59;4967140;28;20063;-77
2023/01/05 13:29:26;;;;;;;0.20;0.20;;;;;;;9.99;100.00;96984.66;4964844;28;20073;-75
2023/01/05 13:32:24;;;;;;;0.20;0.20;;;;;;;9.93;100.00;96982.09;4949184;28;20348;-77
2023/01/05 13:35:22;;;;;;;0.20;0.20;;;;;;;10.26;100.00;96982.34;4947115;28;20070;-77
2023/01/05 13:38:17;;;;;;;0.15;0.15;;;;;;;10.51;100.00;96973.28;4942237;28;20083;-77
2023/01/05 13:41:23;;;;;;;0.20;0.20;;;;;;;10.41;100.00;96967.69;4946215;28;20066;-77
2023/01/05 13:44:26;;;;;;;0.13;0.13;;;;;;;9.89;100.00;96975.59;4947061;28;20510;-77
2023/01/05 13:47:50;;;;;;;0.10;0.10;;;;;;;9.48;100.00;96983.41;4945407;28;20272;-77
2023/01/05 13:51:03;;;;;;;0.10;0.10;;;;;;;9.27;100.00;96977.78;4933708;28;20412;-76
2023/01/05 13:53:51;;;;;;;0.15;0.15;;;;;;;9.01;100.00;96982.41;4948087;28;20420;-77